Flight Track Log - Related Links

Times and Time Zones

All times are in EDT time to prevent confusion due to time zone crossing. See the FFT403 flight status page for this flight to view local times or setup timezone preferences in your user account.

Time Position Orientation Groundspeed Altitude Reporting Facility
EDT Latitude Longitude Course Direction KTS MPH feet Rate Location/Type
Sun 10:53:30 AM 39.8414 -104.7375 254° West 167 192 6,200  Level Denver Center
Sun 10:54:45 AM 39.8217 -104.8272 254° West 212 244 8,400 1,927 Climbing Denver Center
Sun 10:55:47 AM 39.7964 -104.9181 250° West 272 313 10,600 2,371 Climbing Denver Center
Sun 10:56:49 AM 39.7669 -105.0269 251° West 317 365 13,300 2,661 Climbing Denver Center
Sun 10:57:51 AM 39.7239 -105.1450 245° Southwest 338 389 16,100 2,516 Climbing Denver Center
Sun 10:58:53 AM 39.6836 -105.2594 245° Southwest 351 404 18,500 2,516 Climbing Denver Center
Sun 10:59:55 AM 39.6369 -105.3853 244° Southwest 360 414 21,300 2,371 Climbing Denver Center
Sun 11:00:57 AM 39.5942 -105.5042 245° Southwest 362 417 23,400 1,887 Climbing Denver Center
Sun 11:01:59 AM 39.5497 -105.6247 244° Southwest 368 423 25,200 1,742 Climbing Denver Center
Sun 11:03:01 AM 39.5128 -105.7578 250° West 385 443 27,000 1,645 Climbing Denver Center
Sun 11:04:03 AM 39.4769 -105.8919 251° West 389 448 28,600 1,790 Climbing Denver Center
Sun 11:05:05 AM 39.4331 -106.0525 251° West 399 459 30,700 2,226 Climbing Denver Center
Sun 11:06:07 AM 39.3969 -106.1761 249° West 397 457 33,200 2,274 Climbing Denver Center
Sun 11:07:09 AM 39.3614 -106.3086 251° West 350 403 35,400 1,500 Climbing Denver Center
Sun 11:08:11 AM 39.3278 -106.4239 249° West 356 410 36,300 677 Climbing Denver Center
Sun 11:09:13 AM 39.2892 -106.5631 250° West 367 422 36,800 581 Climbing Denver Center
Sun 11:10:15 AM 39.2514 -106.6858 248° West 381 438 37,500 581 Climbing Denver Center
Sun 11:11:17 AM 39.1850 -106.8147 236° Southwest 386 444 38,000 242 Climbing Denver Center
Sun 11:12:19 AM 39.1186 -106.9181 230° Southwest 390 449 38,000  Level Denver Center
Sun 11:13:21 AM 39.0531 -107.0222 231° Southwest 391 450 38,000  Level Denver Center
Sun 11:14:23 AM 38.9753 -107.1436 231° Southwest 394 453 38,000  Level Denver Center
Sun 11:15:25 AM 38.9078 -107.2492 231° Southwest 399 459 38,000  Level Denver Center
Sun 11:16:27 AM 38.8308 -107.3694 231° Southwest 392 451 38,000  Level Denver Center
Sun 11:17:29 AM 38.7653 -107.4728 231° Southwest 391 450 38,000  Level Denver Center
Sun 11:18:31 AM 38.6856 -107.5964 230° Southwest 400 460 38,000  Level Denver Center
Sun 11:19:33 AM 38.6197 -107.7006 231° Southwest 396 456 38,000  Level Denver Center
Sun 11:20:35 AM 38.5411 -107.8219 230° Southwest 395 455 38,000  Level Denver Center
Sun 11:21:37 AM 38.4739 -107.9256 230° Southwest 395 455 38,000  Level Denver Center
Sun 11:22:39 AM 38.3956 -108.0456 230° Southwest 393 452 38,000  Level Denver Center
Sun 11:23:41 AM 38.3286 -108.1478 230° Southwest 392 451 38,000  Level Denver Center
Sun 11:24:43 AM 38.2622 -108.2506 231° Southwest 390 449 38,000  Level Denver Center
Sun 11:25:45 AM 38.1833 -108.3692 230° Southwest 392 451 38,000 48 Level Denver Center
Sun 11:26:47 AM 38.1156 -108.4719 230° Southwest 395 455 38,100  Climbing Denver Center
Sun 11:27:49 AM 38.0414 -108.5842 230° Southwest 394 453 38,000 -48 Descending Denver Center
Sun 11:28:52 AM 37.9781 -108.7125 238° Southwest 387 445 38,000 48 Level Denver Center
Sun 11:29:54 AM 37.9256 -108.8294 240° Southwest 395 455 38,100  Climbing Denver Center
Sun 11:30:56 AM 37.8664 -108.9611 240° Southwest 388 447 38,000 -48 Descending Denver Center
Sun 11:31:58 AM 37.8153 -109.0731 240° Southwest 385 443 38,000  Level Denver Center
Sun 11:33:00 AM 37.7550 -109.2017 239° Southwest 382 440 38,000  Level Denver Center
Sun 11:34:02 AM 37.7036 -109.3133 240° Southwest 384 442 38,000  Level Denver Center
Sun 11:35:04 AM 37.6439 -109.4442 240° Southwest 386 444 38,000  Level Denver Center
Sun 11:36:06 AM 37.5917 -109.5578 240° Southwest 390 449 38,000  Level Denver Center
Sun 11:37:08 AM 37.5386 -109.6714 240° Southwest 393 452 38,000  Level Denver Center
Sun 11:38:10 AM 37.4775 -109.8025 240° Southwest 390 449 38,000  Level Denver Center
Sun 11:39:12 AM 37.4244 -109.9142 239° Southwest 389 448 38,000  Level Denver Center
Sun 11:40:14 AM 37.3639 -110.0433 239° Southwest 386 444 38,000  Level Denver Center
Sun 11:41:16 AM 37.3122 -110.1525 239° Southwest 381 438 38,000  Level Denver Center
Sun 11:42:18 AM 37.2547 -110.2747 239° Southwest 382 440 38,000  Level Denver Center
Sun 11:43:20 AM 37.2008 -110.3906 240° Southwest 383 441 38,000  Level Denver Center
Sun 11:44:22 AM 37.1458 -110.5047 239° Southwest 382 440 38,000  Level Denver Center
Sun 11:45:24 AM 37.0792 -110.6425 239° Southwest 386 444 38,000  Level Denver Center
Sun 11:46:26 AM 37.0256 -110.7544 239° Southwest 378 435 38,000  Level Denver Center
Sun 11:47:28 AM 36.9711 -110.8689 239° Southwest 380 437 38,000  Level Denver Center
Sun 11:48:30 AM 36.9153 -110.9814 238° Southwest 380 437 38,000  Level Denver Center
Sun 11:49:32 AM 36.8600 -111.0958 239° Southwest 384 442 38,000  Level Denver Center
Sun 11:50:34 AM 36.8072 -111.2081 240° Southwest 378 435 38,000 48 Level Denver Center
Sun 11:51:36 AM 36.7508 -111.3225 238° Southwest 382 440 38,100  Climbing Denver Center
Sun 11:52:38 AM 36.6825 -111.4614 239° Southwest 389 448 38,000 -48 Descending Denver Center
Sun 11:53:40 AM 36.6258 -111.5742 238° Southwest 387 445 38,000  Level Denver Center
Sun 11:54:42 AM 36.5703 -111.6856 238° Southwest 381 438 38,000  Level Denver Center
Sun 11:55:44 AM 36.5161 -111.7969 239° Southwest 377 434 38,000  Level Denver Center
Sun 11:56:29 AM 36.4703 -111.8864 238° Southwest 376 433 38,000  Level Los Angeles Center
Sun 11:57:31 AM 36.4161 -111.9956 238° Southwest 371 427 38,000  Level Los Angeles Center
Sun 11:58:33 AM 36.3614 -112.1058 238° Southwest 372 428 38,000  Level Los Angeles Center
Sun 11:59:34 AM 36.3164 -112.1956 238° Southwest 378 435 38,000 32 Level Los Angeles Center
Sun 12:01:00 PM 36.2649 -112.3218 243° Southwest  Level FlightAware Approximate
Sun 12:01:38 PM 36.1931 -112.4772 243° Southwest 388 447 38,100  Level Los Angeles Center
Sun 12:02:40 PM 36.1439 -112.5978 243° Southwest 391 450 38,100 -49 Level Los Angeles Center
Sun 12:03:41 PM 36.0953 -112.7172 243° Southwest 390 449 38,000 -49 Descending Los Angeles Center
Sun 12:04:43 PM 36.0464 -112.8339 243° Southwest 384 442 38,000  Level Los Angeles Center
Sun 12:05:45 PM 35.9994 -112.9494 243° Southwest 378 435 38,000  Level Los Angeles Center
Sun 12:06:47 PM 35.9533 -113.0600 243° Southwest 378 435 38,000  Level Los Angeles Center
Sun 12:07:48 PM 35.9061 -113.1736 243° Southwest 377 434 38,000  Level Los Angeles Center
Sun 12:08:50 PM 35.8475 -113.3142 243° Southwest 386 444 38,000  Level Los Angeles Center
Sun 12:09:52 PM 35.7983 -113.4311 243° Southwest 388 447 38,000  Level Los Angeles Center
Sun 12:10:54 PM 35.7492 -113.5489 243° Southwest 390 449 38,000 49 Level Los Angeles Center
Sun 12:11:55 PM 35.6994 -113.6644 242° Southwest 386 444 38,100  Climbing Los Angeles Center
Sun 12:12:57 PM 35.6514 -113.7811 243° Southwest 386 444 38,000 -48 Descending Los Angeles Center
Sun 12:13:59 PM 35.5931 -113.9186 242° Southwest 381 438 38,000  Level Los Angeles Center
Sun 12:15:01 PM 35.5436 -114.0344 242° Southwest 385 443 38,000  Level Los Angeles Center
Sun 12:16:03 PM 35.4936 -114.1506 242° Southwest 387 445 38,000 48 Level Los Angeles Center
Sun 12:17:05 PM 35.4400 -114.2739 242° Southwest 386 444 38,100  Climbing Los Angeles Center
Sun 12:18:07 PM 35.3906 -114.3886 242° Southwest 383 441 38,000 -48 Descending Los Angeles Center
Sun 12:19:09 PM 35.3425 -114.5014 242° Southwest 376 433 38,000  Level Los Angeles Center
Sun 12:20:10 PM 35.2936 -114.6133 242° Southwest 373 429 38,000  Level Los Angeles Center
Sun 12:21:12 PM 35.2539 -114.7056 242° Southwest 379 436 38,000 48 Level Los Angeles Center
Sun 12:22:14 PM 35.1828 -114.8650 241° Southwest 382 440 38,100 -290 Climbing Los Angeles Center
Sun 12:23:16 PM 35.1333 -114.9783 242° Southwest 379 436 37,400 -823 Descending Los Angeles Center
Sun 12:24:18 PM 35.0839 -115.0919 242° Southwest 379 436 36,400 -968 Descending Los Angeles Center
Sun 12:25:20 PM 35.0336 -115.2042 241° Southwest 376 433 35,400 -919 Descending Los Angeles Center
Sun 12:26:22 PM 34.9892 -115.3067 242° Southwest 367 422 34,500 -1,016 Descending Los Angeles Center
Sun 12:27:24 PM 34.9308 -115.4361 241° Southwest 363 418 33,300 -1,016 Descending Los Angeles Center
Sun 12:28:26 PM 34.8906 -115.5278 242° Southwest 359 413 32,400 -629 Descending Los Angeles Center
Sun 12:29:28 PM 34.8364 -115.6478 241° Southwest 356 410 32,000 -194 Descending Los Angeles Center
Sun 12:30:30 PM 34.7894 -115.7528 241° Southwest 354 407 32,000  Level Los Angeles Center
Sun 12:31:31 PM 34.7414 -115.8594 241° Southwest 357 411 32,000  Level Los Angeles Center
Sun 12:32:33 PM 34.6933 -115.9656 241° Southwest 360 414 32,000 48 Level Los Angeles Center
Sun 12:33:35 PM 34.6439 -116.0725 241° Southwest 362 417 32,100  Climbing Los Angeles Center
Sun 12:34:37 PM 34.5867 -116.2006 242° Southwest 359 413 32,000 -88 Descending Los Angeles Center
Sun 12:35:51 PM 34.5392 -116.3047 241° Southwest 353 406 31,900 -88 Descending Los Angeles Center
Sun 12:36:54 PM 34.4811 -116.4303 241° Southwest 354 407 31,800 -336 Descending Los Angeles Center
Sun 12:37:56 PM 34.4328 -116.5342 241° Southwest 354 407 31,200 -532 Descending Los Angeles Center
Sun 12:38:58 PM 34.3836 -116.6403 241° Southwest 359 413 30,700 -1,500 Descending Los Angeles Center
Sun 12:40:00 PM 34.3344 -116.7472 241° Southwest 363 418 28,100 -2,613 Descending Los Angeles Center
Sun 12:41:02 PM 34.2719 -116.8828 241° Southwest 382 440 25,300 -2,419 Descending Los Angeles Center
Sun 12:42:04 PM 34.2189 -116.9953 240° Southwest 382 440 23,100 -2,032 Descending Los Angeles Center
Sun 12:43:06 PM 34.1686 -117.1031 241° Southwest 371 427 21,100 -1,984 Descending Los Angeles Center
Sun 12:44:08 PM 34.1147 -117.2164 240° Southwest 362 417 19,000 -1,684 Descending Los Angeles Center
Sun 12:45:00 PM 34.0667 -117.3167 240° Southwest 335 386 17,900 -1,232 Descending Southern California TRACON
Sun 12:46:00 PM 34.0333 -117.4167 248° West 336 387 16,700 -1,158 Descending Southern California TRACON
Sun 12:46:54 PM 34.0167 -117.5000 256° West 324 373 15,700 -1,100 Descending Southern California TRACON
Sun 12:48:00 PM 34.0167 -117.6167 270° West 451 519 14,500 -1,150 Descending Southern California TRACON
Sun 12:48:54 PM 34.0000 -117.7333 260° West 308 354 13,400 -1,000 Descending Southern California TRACON
Sun 12:49:54 PM 34.0000 -117.8333 270° West 321 369 12,600 -810 Descending Southern California TRACON
Sun 12:51:00 PM 33.9833 -117.9500 260° West 328 377 11,700 -750 Descending Southern California TRACON
Sun 12:51:54 PM 33.9667 -118.0500 259° West 324 373 11,100 -684 Descending Southern California TRACON
Sun 12:52:54 PM 33.9667 -118.1500 270° West 319 367 10,400 -686 Descending Southern California TRACON
Sun 12:53:39 PM 33.9550 -118.2125 257° West 314 361 9,900 -1,290 Descending Los Angeles Center
Sun 12:54:41 PM 33.9358 -118.3131 257° West 272 313 8,100 -919 Descending Los Angeles Center
Sun 12:55:43 PM 33.8869 -118.3781 228° Southwest 266 306 8,000 -288 Descending Los Angeles Center
Sun 12:56:46 PM 33.8508 -118.4519 240° Southwest 258 297 7,500 -912 Descending Los Angeles Center
Sun 12:57:48 PM 33.8497 -118.5306 269° West 236 272 6,100 -1,452 Descending Los Angeles Center
Sun 12:58:50 PM 33.8453 -118.6142 266° West 233 268 4,500 -1,452 Descending Los Angeles Center
Sun 12:59:52 PM 33.8414 -118.6800 266° West 194 223 3,100 -1,210 Descending Los Angeles Center
Sun 01:00:54 PM 33.8739 -118.7172 316° Northwest 186 214 2,000 -532 Descending Los Angeles Center
Sun 01:01:56 PM 33.9086 -118.6686 49° Northeast 177 204 2,000 -48 Level Los Angeles Center
Sun 01:02:58 PM 33.9144 -118.6114 83° East 169 194 1,900 -97 Descending Los Angeles Center
Sun 01:04:00 PM 33.9208 -118.5497 83° East 171 197 1,800 -290 Descending Los Angeles Center
Sun 01:05:02 PM 33.9267 -118.4931 83° East 172 198 1,300 -581 Descending Los Angeles Center
Sun 01:06:04 PM 33.9308 -118.4478 84° East 128 147 600 -532 Descending Los Angeles Center
Sun 01:07:06 PM 33.9558 -118.4100 51° Northeast 153 176 200 -387 Descending Los Angeles Center

Login

Don't have an account? Register now (free) for customized features, flight alerts, and more!